Time;durP1;ratioP1;P1;durP2;ratioP2;P2;SDS_P1;SDS_P2;PMS_P1;PMS_P2;Temp;Humidity;BMP_temperature;BMP_pressure;BME280_temperature;BME280_humidity;BME280_pressure;Samples;Min_cycle;Max_cycle;Signal;HPM_P1;HPM_P2
2023/09/29 00:02:10;;;;;;;3.00;2.70;;;15.80;97.20;;;;;;5088831;28;20633;-73
2023/09/29 00:04:37;;;;;;;2.80;2.60;;;15.80;97.00;;;;;;5083830;28;20621;-72
2023/09/29 00:07:04;;;;;;;2.87;2.67;;;15.80;97.00;;;;;;5090404;28;20689;-73
2023/09/29 00:09:31;;;;;;;3.00;2.70;;;15.80;97.00;;;;;;5097559;28;20663;-73
2023/09/29 00:12:00;;;;;;;2.57;2.37;;;15.80;96.90;;;;;;5094244;28;20644;-73
2023/09/29 00:14:27;;;;;;;3.33;3.00;;;15.80;97.00;;;;;;5074858;28;20631;-73
2023/09/29 00:16:54;;;;;;;3.00;2.80;;;15.90;97.00;;;;;;5098224;28;20608;-73
2023/09/29 00:19:20;;;;;;;2.60;2.30;;;15.90;97.00;;;;;;5096647;28;20679;-73
2023/09/29 00:21:47;;;;;;;3.90;3.43;;;16.00;96.80;;;;;;5101003;28;20749;-73
2023/09/29 00:24:14;;;;;;;4.00;2.97;;;16.00;96.50;;;;;;5091835;28;20629;-73
2023/09/29 00:26:41;;;;;;;2.83;2.63;;;16.10;96.20;;;;;;5091965;28;20631;-73
2023/09/29 00:29:11;;;;;;;4.10;3.17;;;16.00;96.00;;;;;;5098411;27;20687;-73
2023/09/29 00:31:38;;;;;;;3.03;2.80;;;16.00;96.20;;;;;;5096924;27;20824;-73
2023/09/29 00:34:06;;;;;;;3.57;3.20;;;15.90;96.30;;;;;;5106085;27;21010;-73
2023/09/29 00:36:32;;;;;;;3.03;2.83;;;15.90;96.40;;;;;;5102750;27;20633;-73
2023/09/29 00:38:59;;;;;;;3.50;2.97;;;15.80;96.50;;;;;;5089394;27;20635;-73
2023/09/29 00:41:26;;;;;;;4.50;3.00;;;15.80;95.80;;;;;;5102538;27;21019;-73
2023/09/29 00:43:52;;;;;;;3.30;3.00;;;15.80;95.40;;;;;;5102311;27;21037;-73
2023/09/29 00:46:21;;;;;;;9.53;3.70;;;15.90;95.60;;;;;;5096372;27;20631;-73
2023/09/29 00:48:49;;;;;;;3.57;2.73;;;15.80;95.60;;;;;;5100299;27;20653;-73
2023/09/29 00:51:17;;;;;;;3.73;3.43;;;15.90;95.80;;;;;;5097784;27;20632;-73
2023/09/29 00:53:44;;;;;;;3.00;2.50;;;15.90;95.80;;;;;;5094634;27;20730;-73
2023/09/29 00:56:12;;;;;;;3.20;2.90;;;15.80;95.90;;;;;;5101599;27;20640;-73
2023/09/29 00:58:39;;;;;;;3.37;2.80;;;15.70;95.80;;;;;;5105298;27;20632;-73
2023/09/29 01:01:08;;;;;;;3.97;3.07;;;15.80;95.80;;;;;;5104910;27;21105;-73
2023/09/29 01:03:36;;;;;;;2.83;2.63;;;15.80;95.80;;;;;;5106898;27;20628;-73
2023/09/29 01:06:06;;;;;;;2.97;2.67;;;15.80;95.70;;;;;;5100513;27;22159;-73
2023/09/29 01:08:33;;;;;;;3.23;2.90;;;15.70;95.60;;;;;;5100727;27;20656;-73
2023/09/29 01:11:00;;;;;;;3.00;2.57;;;15.70;95.70;;;;;;5093540;27;20637;-73
2023/09/29 01:13:27;;;;;;;2.70;2.50;;;15.60;95.60;;;;;;5100932;27;20734;-73
2023/09/29 01:15:56;;;;;;;3.73;2.53;;;15.70;95.70;;;;;;5100438;27;20612;-73
2023/09/29 01:18:24;;;;;;;3.03;2.80;;;15.60;95.60;;;;;;5094157;27;20903;-73
2023/09/29 01:20:53;;;;;;;3.23;2.97;;;15.60;95.50;;;;;;5102488;27;21366;-73
2023/09/29 01:23:21;;;;;;;5.00;2.77;;;15.60;95.60;;;;;;5106239;27;20725;-73
2023/09/29 01:25:49;;;;;;;3.00;2.80;;;15.60;96.00;;;;;;5096910;27;20705;-73
2023/09/29 01:28:17;;;;;;;3.17;2.87;;;15.50;96.00;;;;;;5087387;28;20912;-73
2023/09/29 01:30:45;;;;;;;3.37;3.07;;;15.50;95.90;;;;;;5098833;27;20624;-73
2023/09/29 01:33:13;;;;;;;4.33;3.93;;;15.40;96.30;;;;;;5102977;27;21002;-73
2023/09/29 01:35:43;;;;;;;3.03;2.73;;;15.30;96.60;;;;;;5105130;27;20758;-73
2023/09/29 01:38:11;;;;;;;2.60;2.40;;;15.30;97.00;;;;;;5105419;27;21436;-73
2023/09/29 01:40:39;;;;;;;3.70;2.97;;;15.20;97.20;;;;;;5081350;28;20628;-72
2023/09/29 01:43:09;;;;;;;5.53;2.47;;;15.20;96.60;;;;;;5093370;27;20632;-73
2023/09/29 01:45:38;;;;;;;2.87;2.57;;;15.20;96.40;;;;;;5101097;27;20665;-73
2023/09/29 01:48:07;;;;;;;3.50;2.70;;;15.10;96.80;;;;;;5106500;27;20707;-73
2023/09/29 01:50:33;;;;;;;2.93;2.70;;;15.10;96.60;;;;;;5101376;27;21284;-73
2023/09/29 01:53:00;;;;;;;2.97;2.77;;;15.20;96.20;;;;;;5087993;27;21158;-73
2023/09/29 01:55:27;;;;;;;3.03;2.80;;;15.20;96.20;;;;;;5101196;27;20620;-73
2023/09/29 01:57:54;;;;;;;3.67;3.23;;;15.10;96.70;;;;;;5100987;27;20631;-73
2023/09/29 02:00:25;;;;;;;3.03;2.80;;;15.00;97.40;;;;;;5105228;27;20635;-73
2023/09/29 02:02:53;;;;;;;2.73;2.53;;;15.00;97.20;;;;;;5098755;27;20634;-73
2023/09/29 02:05:20;;;;;;;3.10;2.67;;;14.90;96.90;;;;;;5083972;28;20625;-73
2023/09/29 02:07:48;;;;;;;3.00;2.80;;;15.00;96.90;;;;;;5087466;27;20654;-73
2023/09/29 02:10:19;;;;;;;4.47;2.90;;;14.90;96.80;;;;;;5097745;27;20632;-73
2023/09/29 02:12:55;;;;;;;3.30;3.00;;;14.90;96.80;;;;;;5104680;27;20733;-72
2023/09/29 02:15:25;;;;;;;3.03;2.80;;;14.90;96.60;;;;;;5104559;27;20684;-73
2023/09/29 02:17:52;;;;;;;3.37;3.07;;;15.00;96.70;;;;;;5081836;28;20625;-73
2023/09/29 02:20:30;;;;;;;3.70;3.07;;;15.00;96.60;;;;;;5099346;27;20635;-73
2023/09/29 02:22:59;;;;;;;2.80;2.60;;;15.00;96.40;;;;;;5100300;27;20628;-73
2023/09/29 02:25:27;;;;;;;4.20;3.80;;;15.10;96.20;;;;;;5088869;28;20628;-73
2023/09/29 02:27:55;;;;;;;3.70;3.40;;;15.10;96.00;;;;;;5101278;27;20675;-73
2023/09/29 02:30:25;;;;;;;4.70;3.17;;;15.20;95.90;;;;;;5104408;27;21103;-73
2023/09/29 02:32:53;;;;;;;3.27;3.03;;;15.20;96.00;;;;;;5093054;27;20623;-73
2023/09/29 02:35:21;;;;;;;2.70;2.50;;;15.20;96.10;;;;;;5104503;27;20636;-73
2023/09/29 02:37:49;;;;;;;4.00;2.87;;;15.10;96.10;;;;;;5099835;27;20715;-73
2023/09/29 02:40:17;;;;;;;3.10;2.80;;;15.10;96.30;;;;;;5092532;27;20632;-73
2023/09/29 02:42:45;;;;;;;4.60;3.67;;;15.00;96.20;;;;;;5083864;28;20638;-73
2023/09/29 02:45:14;;;;;;;5.00;3.83;;;15.00;96.30;;;;;;5092420;27;20962;-73
2023/09/29 02:47:46;;;;;;;4.60;3.43;;;15.10;96.20;;;;;;5098860;27;20820;-73
2023/09/29 02:50:14;;;;;;;3.33;3.03;;;15.10;96.10;;;;;;5102741;27;21029;-73
2023/09/29 02:52:44;;;;;;;2.70;2.43;;;15.10;96.10;;;;;;5088690;27;20789;-73
2023/09/29 02:55:14;;;;;;;3.90;3.20;;;15.20;96.00;;;;;;5097996;27;20640;-73
2023/09/29 02:57:42;;;;;;;2.67;2.47;;;15.30;95.90;;;;;;5091986;27;20622;-73
2023/09/29 03:00:12;;;;;;;3.00;2.70;;;15.30;95.70;;;;;;5102672;27;20665;-73
2023/09/29 03:02:39;;;;;;;2.93;2.63;;;15.20;95.70;;;;;;5103838;27;21191;-73
2023/09/29 03:05:09;;;;;;;3.47;3.17;;;15.20;95.60;;;;;;5105201;27;20646;-73
2023/09/29 03:07:36;;;;;;;2.80;2.57;;;15.20;95.70;;;;;;5089559;28;20722;-73
2023/09/29 03:10:05;;;;;;;6.07;3.23;;;15.30;95.60;;;;;;5099543;27;20635;-72
2023/09/29 03:12:32;;;;;;;4.77;3.30;;;15.10;95.80;;;;;;5099569;27;20649;-73
2023/09/29 03:14:59;;;;;;;3.80;3.20;;;15.10;96.00;;;;;;5102202;27;20635;-73
2023/09/29 03:17:28;;;;;;;2.83;2.63;;;15.10;96.00;;;;;;5104583;27;20628;-73
2023/09/29 03:19:55;;;;;;;3.40;3.03;;;14.90;96.50;;;;;;5098031;27;20624;-73
2023/09/29 03:22:23;;;;;;;7.60;3.40;;;14.80;96.50;;;;;;5095182;27;20639;-73
2023/09/29 03:24:50;;;;;;;3.20;3.00;;;14.90;96.60;;;;;;5092986;27;20646;-73
2023/09/29 03:27:18;;;;;;;2.90;2.50;;;14.90;96.70;;;;;;5103320;27;20627;-73
2023/09/29 03:29:45;;;;;;;3.00;2.70;;;15.00;96.40;;;;;;5097094;27;20652;-73
2023/09/29 03:32:11;;;;;;;3.00;2.70;;;14.90;96.70;;;;;;5088102;27;20643;-73
2023/09/29 03:34:38;;;;;;;2.80;2.60;;;14.80;96.70;;;;;;5098046;27;20723;-73
2023/09/29 03:37:06;;;;;;;4.30;3.33;;;14.80;96.70;;;;;;5094827;27;20738;-73
2023/09/29 03:39:35;;;;;;;5.53;2.60;;;14.70;96.90;;;;;;5095729;27;20974;-73
2023/09/29 03:42:02;;;;;;;3.73;3.43;;;14.70;97.10;;;;;;5092970;27;20637;-73
2023/09/29 03:44:29;;;;;;;3.63;3.30;;;14.70;97.10;;;;;;5085755;28;20635;-73
2023/09/29 03:46:56;;;;;;;2.97;2.67;;;14.60;97.00;;;;;;5097154;27;20624;-73
2023/09/29 03:49:23;;;;;;;4.47;3.67;;;14.60;97.20;;;;;;5097153;27;20692;-73
2023/09/29 03:51:51;;;;;;;2.90;2.63;;;14.50;97.20;;;;;;5094774;27;20686;-73
2023/09/29 03:54:18;;;;;;;4.03;3.63;;;14.50;97.40;;;;;;5098771;27;20637;-73
2023/09/29 03:56:46;;;;;;;3.13;2.83;;;14.40;97.30;;;;;;5079085;28;20638;-73
2023/09/29 03:59:13;;;;;;;2.97;2.67;;;14.50;97.50;;;;;;5095814;28;20675;-73
2023/09/29 04:01:40;;;;;;;3.50;3.00;;;14.50;97.40;;;;;;5098220;28;20720;-72
2023/09/29 04:04:07;;;;;;;2.93;2.50;;;14.50;97.10;;;;;;5090650;28;20646;-73
2023/09/29 04:06:34;;;;;;;3.47;3.17;;;14.60;97.40;;;;;;5093962;28;20623;-73
2023/09/29 04:09:01;;;;;;;3.33;3.00;;;14.50;97.70;;;;;;5095277;28;20661;-72
2023/09/29 04:11:27;;;;;;;2.70;2.17;;;14.40;98.10;;;;;;5093833;28;20635;-71
2023/09/29 04:13:55;;;;;;;4.33;3.37;;;14.20;98.40;;;;;;5090085;28;20643;-72
2023/09/29 04:16:22;;;;;;;5.27;2.90;;;14.20;98.50;;;;;;5101807;28;20629;-72
2023/09/29 04:18:49;;;;;;;3.40;3.07;;;14.20;98.10;;;;;;5082682;28;20621;-72
2023/09/29 04:21:16;;;;;;;3.40;3.10;;;14.20;98.10;;;;;;5094035;28;20639;-72
2023/09/29 04:23:43;;;;;;;5.07;3.03;;;14.20;98.40;;;;;;5091450;28;20659;-73
2023/09/29 04:26:16;;;;;;;5.53;3.77;;;14.10;98.60;;;;;;5094468;28;20631;-73
2023/09/29 04:28:43;;;;;;;3.90;3.30;;;14.10;98.80;;;;;;5102667;28;20647;-72
2023/09/29 04:31:12;;;;;;;4.03;3.77;;;14.10;99.30;;;;;;5102129;28;20637;-72
2023/09/29 04:33:39;;;;;;;2.90;2.63;;;14.10;98.60;;;;;;5098851;28;20629;-72
2023/09/29 04:36:07;;;;;;;3.93;2.90;;;14.10;98.40;;;;;;5093049;28;20632;-73
2023/09/29 04:38:34;;;;;;;4.40;3.47;;;14.20;98.70;;;;;;5096497;28;20769;-73
2023/09/29 04:41:01;;;;;;;3.47;3.10;;;14.20;99.10;;;;;;5102939;28;20628;-72
2023/09/29 04:43:28;;;;;;;3.73;3.27;;;14.20;99.20;;;;;;5103330;28;20642;-73
2023/09/29 04:45:55;;;;;;;3.63;2.80;;;14.30;98.80;;;;;;5087901;28;20628;-73
2023/09/29 04:48:23;;;;;;;3.30;2.70;;;14.30;98.70;;;;;;5095440;28;21483;-73
2023/09/29 04:50:50;;;;;;;5.60;3.77;;;14.30;98.90;;;;;;5097170;28;20637;-73
2023/09/29 04:53:17;;;;;;;4.43;2.80;;;14.30;99.10;;;;;;5094344;28;21210;-73
2023/09/29 04:55:44;;;;;;;4.40;3.50;;;14.30;99.70;;;;;;5095186;28;20631;-73
2023/09/29 04:58:10;;;;;;;3.80;3.43;;;14.30;99.70;;;;;;5083622;28;20630;-73
2023/09/29 05:00:37;;;;;;;4.93;3.67;;;14.50;99.30;;;;;;5097892;28;21168;-73
2023/09/29 05:03:04;;;;;;;7.67;4.10;;;14.50;98.90;;;;;;5095808;28;21237;-72
2023/09/29 05:05:33;;;;;;;7.33;4.03;;;14.50;98.80;;;;;;5097157;28;20620;-72
2023/09/29 05:08:00;;;;;;;4.00;2.80;;;14.60;98.90;;;;;;5094315;28;20635;-72
2023/09/29 05:10:27;;;;;;;4.40;3.70;;;14.60;99.10;;;;;;5078392;28;20628;-73
2023/09/29 05:12:53;;;;;;;4.30;3.40;;;14.50;99.40;;;;;;5093359;28;20654;-73
2023/09/29 05:15:20;;;;;;;4.07;3.33;;;14.50;99.80;;;;;;5100179;27;20633;-73
2023/09/29 05:17:50;;;;;;;4.03;3.63;;;14.60;99.60;;;;;;5102749;27;20735;-73
2023/09/29 05:20:17;;;;;;;3.57;3.27;;;14.50;99.90;;;;;;5102481;27;20634;-72
2023/09/29 05:22:45;;;;;;;5.33;3.90;;;14.50;99.90;;;;;;5093104;27;21343;-72
2023/09/29 05:25:12;;;;;;;6.40;4.90;;;14.60;99.70;;;;;;5088143;27;20630;-72
2023/09/29 05:27:39;;;;;;;4.20;3.57;;;14.70;99.40;;;;;;5096704;27;20631;-72
2023/09/29 05:30:07;;;;;;;7.83;5.10;;;14.70;99.10;;;;;;5106115;27;21231;-72
2023/09/29 05:32:34;;;;;;;4.97;3.67;;;14.80;98.90;;;;;;5100234;27;20755;-72
2023/09/29 05:35:01;;;;;;;4.90;3.80;;;14.90;98.70;;;;;;5086804;27;20615;-72
2023/09/29 05:37:27;;;;;;;4.67;3.70;;;14.80;99.10;;;;;;5092352;27;20641;-72
2023/09/29 05:39:56;;;;;;;4.83;3.60;;;14.90;99.00;;;;;;5102877;27;20631;-72
2023/09/29 05:42:22;;;;;;;4.37;3.93;;;14.90;99.20;;;;;;5101806;27;20631;-72
2023/09/29 05:44:49;;;;;;;5.90;4.17;;;15.00;99.40;;;;;;5104220;27;21193;-72
2023/09/29 05:47:17;;;;;;;4.30;3.90;;;15.10;99.20;;;;;;5081342;28;20642;-72
2023/09/29 05:49:44;;;;;;;6.40;4.10;;;15.10;98.70;;;;;;5096982;27;20648;-72
2023/09/29 05:52:11;;;;;;;3.57;3.17;;;15.20;98.20;;;;;;5102745;27;20634;-73
2023/09/29 05:54:38;;;;;;;4.70;3.60;;;15.30;98.10;;;;;;5096240;27;21279;-72
2023/09/29 05:57:07;;;;;;;3.40;3.10;;;15.40;97.50;;;;;;5091381;27;21269;-72
2023/09/29 05:59:34;;;;;;;4.07;3.67;;;15.50;97.40;;;;;;5104407;27;21030;-72
2023/09/29 06:02:00;;;;;;;3.20;2.90;;;15.60;97.30;;;;;;5094177;27;20662;-72
2023/09/29 06:04:27;;;;;;;4.00;3.60;;;15.60;97.30;;;;;;5095814;27;20627;-72
2023/09/29 06:06:54;;;;;;;3.97;3.23;;;15.70;97.60;;;;;;5097802;27;20754;-72
2023/09/29 06:09:21;;;;;;;3.90;3.13;;;15.70;97.20;;;;;;5100073;27;20666;-72
2023/09/29 06:11:49;;;;;;;3.90;3.10;;;15.80;96.90;;;;;;5095305;27;20637;-73
2023/09/29 06:14:17;;;;;;;4.00;3.60;;;15.90;96.90;;;;;;5092341;27;20766;-72
2023/09/29 06:16:43;;;;;;;3.20;2.90;;;16.00;96.70;;;;;;5095705;27;20643;-72
2023/09/29 06:19:10;;;;;;;6.60;3.93;;;16.10;96.40;;;;;;5096492;27;20639;-72
2023/09/29 06:21:37;;;;;;;4.73;4.33;;;16.10;96.40;;;;;;5098631;27;20627;-73
2023/09/29 06:24:05;;;;;;;4.47;4.07;;;16.10;96.10;;;;;;5103044;27;20721;-73
2023/09/29 06:26:32;;;;;;;4.00;3.70;;;16.20;96.00;;;;;;5088902;27;21350;-73
2023/09/29 06:29:00;;;;;;;5.37;4.23;;;16.30;96.10;;;;;;5093837;27;20672;-73
2023/09/29 06:31:28;;;;;;;4.07;3.27;;;16.30;96.20;;;;;;5091164;27;21218;-73
2023/09/29 06:33:55;;;;;;;4.50;3.53;;;16.40;96.40;;;;;;5098494;27;20638;-73
2023/09/29 06:36:21;;;;;;;4.70;3.63;;;16.50;96.30;;;;;;5099924;27;20635;-73
2023/09/29 06:38:48;;;;;;;7.37;4.03;;;16.40;96.40;;;;;;5098502;27;20627;-73
2023/09/29 06:41:15;;;;;;;4.43;4.03;;;16.50;96.30;;;;;;5094129;27;20793;-73
2023/09/29 06:43:43;;;;;;;4.53;3.50;;;16.50;96.40;;;;;;5098389;27;20631;-73
2023/09/29 06:46:10;;;;;;;6.27;3.90;;;16.50;96.20;;;;;;5102027;27;21004;-73
2023/09/29 06:48:38;;;;;;;4.47;4.07;;;16.50;96.30;;;;;;5108392;27;21617;-73
2023/09/29 06:51:05;;;;;;;5.27;3.80;;;16.70;96.30;;;;;;5093659;27;21419;-73
2023/09/29 06:53:32;;;;;;;5.97;3.40;;;16.70;96.10;;;;;;5096243;27;20632;-73
2023/09/29 06:55:59;;;;;;;4.23;3.70;;;16.70;95.90;;;;;;5094176;27;20723;-73
2023/09/29 06:58:28;;;;;;;3.73;3.40;;;16.70;95.90;;;;;;5085068;27;21199;-73
2023/09/29 07:00:57;;;;;;;3.90;3.23;;;16.70;96.00;;;;;;5083190;27;20627;-73
2023/09/29 07:03:24;;;;;;;9.53;3.70;;;16.70;96.10;;;;;;5099478;27;20635;-73
2023/09/29 07:05:55;;;;;;;4.10;3.67;;;16.80;96.00;;;;;;5099489;27;20624;-73
2023/09/29 07:08:21;;;;;;;4.40;4.00;;;16.80;96.10;;;;;;5096654;27;20645;-73
2023/09/29 07:10:49;;;;;;;5.57;4.27;;;16.80;96.10;;;;;;5097690;27;20661;-73
2023/09/29 07:13:16;;;;;;;5.50;4.13;;;16.90;96.00;;;;;;5078366;28;20726;-73
2023/09/29 07:15:42;;;;;;;10.20;3.70;;;17.00;95.80;;;;;;5085856;27;20739;-73
2023/09/29 07:18:16;;;;;;;5.97;4.70;;;17.00;96.00;;;;;;5097155;27;20631;-73
2023/09/29 07:20:43;;;;;;;4.43;3.80;;;17.10;96.00;;;;;;5096949;27;20722;-73
2023/09/29 07:23:11;;;;;;;5.60;4.27;;;17.10;96.00;;;;;;5100839;27;20619;-72
2023/09/29 07:25:39;;;;;;;3.80;3.47;;;17.20;95.80;;;;;;5086281;27;20631;-71
2023/09/29 07:28:08;;;;;;;7.70;4.90;;;17.30;96.00;;;;;;5101817;27;20627;-72
2023/09/29 07:30:35;;;;;;;5.73;4.83;;;17.30;96.10;;;;;;5085533;28;20656;-72
2023/09/29 07:33:02;;;;;;;3.93;3.60;;;17.40;96.20;;;;;;5091168;27;20702;-73
2023/09/29 07:35:30;;;;;;;6.87;3.60;;;17.40;96.10;;;;;;5101025;27;20660;-73
2023/09/29 07:37:58;;;;;;;5.90;4.80;;;17.40;96.30;;;;;;5106992;27;20644;-73
2023/09/29 07:40:26;;;;;;;4.43;4.03;;;17.50;96.20;;;;;;5090347;28;20625;-73
2023/09/29 07:42:53;;;;;;;3.30;3.00;;;17.50;96.10;;;;;;5097902;27;20624;-73
2023/09/29 07:45:20;;;;;;;5.70;3.83;;;17.60;96.30;;;;;;5100971;27;20622;-73
2023/09/29 07:47:47;;;;;;;3.77;3.47;;;17.60;96.30;;;;;;5102567;27;20979;-73
2023/09/29 07:50:14;;;;;;;4.50;3.53;;;17.70;96.20;;;;;;5091946;27;20663;-73
2023/09/29 07:52:41;;;;;;;5.03;4.13;;;17.70;96.40;;;;;;5090686;27;20654;-73
2023/09/29 07:55:12;;;;;;;4.17;3.70;;;17.80;95.80;;;;;;5091596;27;20630;-73
2023/09/29 07:57:40;;;;;;;10.57;4.67;;;17.90;95.60;;;;;;5094184;27;20632;-73
2023/09/29 08:00:10;;;;;;;4.00;3.57;;;18.00;95.50;;;;;;5104925;28;20616;-73
2023/09/29 08:02:37;;;;;;;4.30;3.90;;;18.20;95.50;;;;;;5089022;28;20628;-73
2023/09/29 08:05:04;;;;;;;6.27;4.63;;;18.30;95.60;;;;;;5094694;28;21206;-73
2023/09/29 08:07:31;;;;;;;4.47;3.63;;;18.40;95.40;;;;;;5098810;28;20710;-73
2023/09/29 08:09:58;;;;;;;6.50;3.80;;;18.50;95.30;;;;;;5100130;28;21207;-73
2023/09/29 08:12:25;;;;;;;6.00;3.23;;;18.60;95.30;;;;;;5103310;28;20636;-73
2023/09/29 08:14:54;;;;;;;4.37;3.53;;;18.70;95.10;;;;;;5082755;28;20627;-73
2023/09/29 08:17:20;;;;;;;3.93;3.63;;;18.80;94.50;;;;;;5097029;28;20638;-73
2023/09/29 08:19:48;;;;;;;4.13;3.70;;;18.90;94.80;;;;;;5098676;28;20645;-73
2023/09/29 08:22:15;;;;;;;3.33;3.03;;;18.80;94.80;;;;;;5094447;28;20685;-73
2023/09/29 08:24:42;;;;;;;4.53;4.10;;;18.80;94.90;;;;;;5094781;28;21187;-73
2023/09/29 08:27:09;;;;;;;4.13;3.00;;;19.10;95.00;;;;;;5091861;28;20626;-73
2023/09/29 08:29:36;;;;;;;5.60;3.60;;;19.40;94.80;;;;;;5085961;28;20666;-73
2023/09/29 08:32:04;;;;;;;4.63;3.33;;;19.70;94.70;;;;;;5099611;28;20994;-72
2023/09/29 08:34:34;;;;;;;6.13;3.60;;;19.90;93.70;;;;;;5090168;28;20631;-73
2023/09/29 08:37:01;;;;;;;5.33;3.33;;;20.00;92.70;;;;;;5095333;28;20633;-73
2023/09/29 08:39:28;;;;;;;3.47;3.03;;;20.00;92.80;;;;;;5087990;28;21020;-73
2023/09/29 08:42:03;;;;;;;4.43;3.90;;;19.90;92.90;;;;;;5089305;28;20953;-73
2023/09/29 08:44:30;;;;;;;6.63;3.50;;;19.70;92.80;;;;;;5099931;28;21298;-72
2023/09/29 08:47:01;;;;;;;5.57;3.50;;;19.80;92.90;;;;;;5092758;28;20635;-72
2023/09/29 08:49:30;;;;;;;3.83;3.50;;;19.80;93.40;;;;;;5100651;28;20661;-73
2023/09/29 08:51:58;;;;;;;3.90;3.57;;;19.90;93.20;;;;;;5097164;27;20630;-73
2023/09/29 08:54:26;;;;;;;4.50;3.70;;;19.90;93.30;;;;;;5078743;27;20626;-73
2023/09/29 08:56:54;;;;;;;8.30;4.50;;;19.90;93.30;;;;;;5102604;27;20633;-73
2023/09/29 08:59:22;;;;;;;4.83;3.30;;;20.20;93.30;;;;;;5101793;27;20619;-73
2023/09/29 09:01:51;;;;;;;3.80;3.33;;;20.40;92.90;;;;;;5105803;27;20769;-73
2023/09/29 09:04:17;;;;;;;3.70;3.40;;;20.60;92.80;;;;;;5100879;27;20978;-73
2023/09/29 09:06:46;;;;;;;3.80;3.37;;;20.80;93.00;;;;;;5097244;27;20630;-73
2023/09/29 09:09:13;;;;;;;5.00;3.43;;;21.00;93.40;;;;;;5097267;27;20623;-73
2023/09/29 09:11:42;;;;;;;2.80;2.60;;;21.20;92.30;;;;;;5100511;27;20717;-73
2023/09/29 09:14:10;;;;;;;2.93;2.73;;;21.40;92.30;;;;;;5104527;27;20628;-73
2023/09/29 09:16:40;;;;;;;3.50;3.20;;;21.70;91.80;;;;;;5098098;27;20660;-73
2023/09/29 09:19:10;;;;;;;4.00;3.10;;;22.00;91.00;;;;;;5100159;27;20624;-73
2023/09/29 09:21:37;;;;;;;3.37;2.87;;;22.30;90.70;;;;;;5102347;27;21251;-73
2023/09/29 09:24:16;;;;;;;3.47;3.17;;;22.60;90.00;;;;;;5100288;27;21636;-73
2023/09/29 09:26:43;;;;;;;3.93;2.37;;;22.90;87.20;;;;;;5106393;27;20636;-73
2023/09/29 09:29:13;;;;;;;2.53;2.30;;;23.30;85.40;;;;;;5095643;27;20625;-73
2023/09/29 09:31:44;;;;;;;3.10;2.70;;;23.50;83.20;;;;;;5090492;27;20651;-73
2023/09/29 09:34:12;;;;;;;2.60;2.40;;;23.70;81.20;;;;;;5101298;27;21252;-73
2023/09/29 09:36:49;;;;;;;2.90;2.70;;;23.90;78.40;;;;;;5095988;27;21026;-73
2023/09/29 09:39:24;;;;;;;2.63;2.43;;;23.90;80.00;;;;;;5105738;27;20648;-73
2023/09/29 09:41:56;;;;;;;3.63;2.90;;;23.80;80.00;;;;;;5086283;27;21227;-73
2023/09/29 09:44:25;;;;;;;2.93;2.63;;;23.90;80.10;;;;;;5094960;27;21086;-73
2023/09/29 09:46:54;;;;;;;2.90;2.70;;;24.00;78.50;;;;;;5095990;27;20623;-72
2023/09/29 09:49:28;;;;;;;2.60;2.40;;;24.20;79.90;;;;;;5092354;27;21408;-73
2023/09/29 09:52:00;;;;;;;2.40;2.23;;;24.20;79.30;;;;;;5100812;27;20649;-73
2023/09/29 09:54:32;;;;;;;3.50;3.20;;;24.20;81.10;;;;;;5096207;27;20623;-73
2023/09/29 09:57:08;;;;;;;2.97;2.83;;;24.30;77.90;;;;;;5094340;27;20636;-73
2023/09/29 09:59:35;;;;;;;2.37;2.20;;;24.20;78.20;;;;;;5089319;28;20662;-72
2023/09/29 10:02:07;;;;;;;2.60;2.40;;;24.40;77.30;;;;;;5097137;27;20625;-73
2023/09/29 10:04:35;;;;;;;5.10;2.77;;;24.40;77.30;;;;;;5100781;27;21513;-73
2023/09/29 10:07:04;;;;;;;2.50;2.30;;;24.40;78.70;;;;;;5084453;27;20974;-73
2023/09/29 10:09:43;;;;;;;4.53;3.30;;;24.40;77.20;;;;;;5095415;27;20619;-73
2023/09/29 10:12:34;;;;;;;2.80;2.60;;;24.50;78.40;;;;;;5100461;27;21011;-73
2023/09/29 10:15:03;;;;;;;2.63;2.43;;;24.50;77.10;;;;;;5096087;27;20773;-73
2023/09/29 10:17:39;;;;;;;2.57;2.37;;;24.50;78.90;;;;;;5098958;27;20620;-73
2023/09/29 10:20:19;;;;;;;2.37;2.17;;;24.40;78.10;;;;;;5084384;27;20765;-73
2023/09/29 10:22:46;;;;;;;2.43;2.23;;;24.40;78.00;;;;;;5091417;27;21002;-73
2023/09/29 10:25:20;;;;;;;3.90;2.73;;;24.40;78.30;;;;;;5103649;27;20636;-73
2023/09/29 10:27:49;;;;;;;2.63;2.43;;;24.40;78.70;;;;;;5106319;27;20986;-73
2023/09/29 10:30:19;;;;;;;3.10;2.80;;;24.50;78.90;;;;;;5104511;27;21446;-73
2023/09/29 10:32:50;;;;;;;3.50;3.20;;;24.40;80.80;;;;;;5081311;28;21396;-73
2023/09/29 10:35:24;;;;;;;3.20;2.60;;;24.60;78.00;;;;;;5099502;27;20689;-72
2023/09/29 10:37:55;;;;;;;2.53;2.33;;;24.80;76.60;;;;;;5095866;27;21260;-73
2023/09/29 10:40:32;;;;;;;3.50;2.90;;;25.00;76.50;;;;;;5090359;28;20631;-72
2023/09/29 10:43:02;;;;;;;2.80;2.43;;;24.90;76.00;;;;;;5092055;27;20635;-71
2023/09/29 10:45:31;;;;;;;2.73;2.53;;;24.80;76.20;;;;;;5085676;27;20761;-72
2023/09/29 10:48:02;;;;;;;3.30;3.00;;;24.90;76.00;;;;;;5100790;27;20633;-72
2023/09/29 10:50:29;;;;;;;4.87;3.20;;;24.90;76.00;;;;;;5101376;27;20665;-73
2023/09/29 10:52:56;;;;;;;2.80;2.57;;;24.80;77.10;;;;;;5104639;27;20630;-72
2023/09/29 10:55:24;;;;;;;3.20;2.77;;;24.60;76.90;;;;;;5088883;27;20631;-73
2023/09/29 10:57:51;;;;;;;3.20;2.90;;;24.70;77.10;;;;;;5091531;27;20619;-72
2023/09/29 11:00:19;;;;;;;3.43;3.13;;;24.80;77.50;;;;;;5101737;27;21187;-72
2023/09/29 11:02:49;;;;;;;3.60;3.30;;;24.80;76.80;;;;;;5100509;27;20622;-72
2023/09/29 11:05:16;;;;;;;2.33;2.20;;;24.90;76.60;;;;;;5094466;27;20635;-72
2023/09/29 11:07:48;;;;;;;3.20;2.40;;;24.90;77.30;;;;;;5102948;27;20639;-73
2023/09/29 11:10:17;;;;;;;2.83;2.63;;;25.00;77.00;;;;;;5096806;27;21014;-72
2023/09/29 11:12:46;;;;;;;3.13;2.87;;;25.00;77.40;;;;;;5097181;27;21298;-72
2023/09/29 11:15:14;;;;;;;3.60;3.10;;;25.00;77.50;;;;;;5104494;27;20626;-72
2023/09/29 11:17:48;;;;;;;3.33;2.73;;;25.20;76.40;;;;;;5100066;27;20623;-73
2023/09/29 11:20:25;;;;;;;3.07;2.70;;;25.10;77.50;;;;;;5103894;27;20980;-72
2023/09/29 11:23:01;;;;;;;4.30;2.70;;;25.00;77.70;;;;;;5088267;27;20676;-72
2023/09/29 11:25:28;;;;;;;3.20;2.90;;;25.10;78.30;;;;;;5082665;28;20619;-72
2023/09/29 11:27:56;;;;;;;3.40;3.10;;;25.20;79.50;;;;;;5095151;27;20627;-73
2023/09/29 11:30:24;;;;;;;3.27;2.97;;;25.20;78.00;;;;;;5096597;27;20670;-72
2023/09/29 11:32:52;;;;;;;3.80;3.50;;;25.20;78.60;;;;;;5084132;27;21035;-72
2023/09/29 11:35:19;;;;;;;3.97;3.57;;;25.30;78.80;;;;;;5089618;27;20647;-72
2023/09/29 11:37:46;;;;;;;7.20;3.30;;;25.30;78.90;;;;;;5096104;27;20631;-72
2023/09/29 11:40:13;;;;;;;4.37;2.90;;;25.40;78.80;;;;;;5098240;27;20623;-72
2023/09/29 11:42:40;;;;;;;4.20;3.10;;;25.40;79.00;;;;;;5103573;27;20630;-73
2023/09/29 11:45:10;;;;;;;3.40;3.17;;;25.40;79.90;;;;;;5092634;27;20629;-73
2023/09/29 11:47:39;;;;;;;4.03;2.80;;;25.50;78.50;;;;;;5085641;27;21322;-73
2023/09/29 11:50:08;;;;;;;3.53;3.23;;;25.50;78.70;;;;;;5096895;27;20913;-72
2023/09/29 11:52:35;;;;;;;4.00;3.70;;;25.50;79.50;;;;;;5095085;27;21863;-73
2023/09/29 11:55:05;;;;;;;4.20;3.80;;;25.50;79.00;;;;;;5084421;28;20779;-72
2023/09/29 11:57:32;;;;;;;3.60;3.30;;;25.50;79.40;;;;;;5107851;27;20634;-72
2023/09/29 11:59:58;;;;;;;3.83;3.40;;;25.50;78.00;;;;;;5098393;27;20636;-72
2023/09/29 12:02:28;;;;;;;3.07;2.87;;;25.70;78.30;;;;;;5094862;28;20615;-72
2023/09/29 12:04:55;;;;;;;4.57;3.77;;;25.70;77.50;;;;;;5094706;28;20629;-72
2023/09/29 12:07:22;;;;;;;10.00;3.77;;;25.70;78.20;;;;;;5103162;28;20631;-72
2023/09/29 12:09:48;;;;;;;3.00;2.80;;;25.80;76.10;;;;;;5087796;28;20633;-73
2023/09/29 12:12:15;;;;;;;5.13;2.93;;;25.80;75.60;;;;;;5095085;28;20660;-73
2023/09/29 12:14:42;;;;;;;3.70;3.40;;;25.80;76.80;;;;;;5095928;27;20620;-73
2023/09/29 12:17:09;;;;;;;3.00;2.80;;;25.90;77.60;;;;;;5093329;28;20627;-73
2023/09/29 12:19:38;;;;;;;3.17;2.97;;;26.00;76.60;;;;;;5101149;28;20622;-73
2023/09/29 12:22:05;;;;;;;4.73;3.93;;;26.10;76.00;;;;;;5096775;28;20626;-73
2023/09/29 12:24:31;;;;;;;3.90;3.60;;;26.20;74.80;;;;;;5094723;28;20635;-73
2023/09/29 12:26:59;;;;;;;3.63;3.13;;;26.30;74.40;;;;;;5089102;28;20628;-73
2023/09/29 12:29:26;;;;;;;3.00;2.80;;;26.30;75.30;;;;;;5097109;27;20628;-73
2023/09/29 12:31:53;;;;;;;3.07;2.70;;;26.30;74.70;;;;;;5104634;27;21554;-73
2023/09/29 12:34:20;;;;;;;4.80;4.40;;;26.30;75.40;;;;;;5111827;27;20627;-73
2023/09/29 12:36:48;;;;;;;3.20;2.90;;;26.40;75.00;;;;;;5100597;27;21480;-73
2023/09/29 12:39:15;;;;;;;3.70;3.37;;;26.40;73.50;;;;;;5096427;27;20612;-73
2023/09/29 12:41:42;;;;;;;4.30;3.90;;;26.50;74.90;;;;;;5101162;27;21821;-73
2023/09/29 12:44:10;;;;;;;3.60;3.30;;;26.50;74.30;;;;;;5101001;27;20628;-73
2023/09/29 12:46:38;;;;;;;3.80;3.30;;;26.60;73.20;;;;;;5090778;27;20628;-73
2023/09/29 12:49:05;;;;;;;3.77;3.47;;;26.50;74.40;;;;;;5100272;27;20968;-73
2023/09/29 12:51:31;;;;;;;2.60;2.40;;;26.50;75.50;;;;;;5100269;27;20654;-73